sensor_id;sensor_type;location;lat;lon;timestamp;temperature;humidity
28087;DHT22;15392;48.912;8.380;2023-04-24T00:00:28;17.30;49.30
28087;DHT22;15392;48.912;8.380;2023-04-24T00:02:54;17.30;49.10
28087;DHT22;15392;48.912;8.380;2023-04-24T00:05:22;17.30;49.30
28087;DHT22;15392;48.912;8.380;2023-04-24T00:07:49;17.30;49.30
28087;DHT22;15392;48.912;8.380;2023-04-24T00:10:18;17.30;49.20
28087;DHT22;15392;48.912;8.380;2023-04-24T00:12:44;17.30;49.20
28087;DHT22;15392;48.912;8.380;2023-04-24T00:15:10;17.30;49.30
28087;DHT22;15392;48.912;8.380;2023-04-24T00:17:36;17.30;49.20
28087;DHT22;15392;48.912;8.380;2023-04-24T00:20:03;17.30;49.20
28087;DHT22;15392;48.912;8.380;2023-04-24T00:22:30;17.30;49.10
28087;DHT22;15392;48.912;8.380;2023-04-24T00:24:56;17.30;49.00
28087;DHT22;15392;48.912;8.380;2023-04-24T00:27:22;17.30;49.00
28087;DHT22;15392;48.912;8.380;2023-04-24T00:29:49;17.40;49.30
28087;DHT22;15392;48.912;8.380;2023-04-24T00:32:14;17.40;49.30
28087;DHT22;15392;48.912;8.380;2023-04-24T00:34:40;17.40;49.10
28087;DHT22;15392;48.912;8.380;2023-04-24T00:37:07;17.30;49.00
28087;DHT22;15392;48.912;8.380;2023-04-24T00:39:33;17.40;49.00
28087;DHT22;15392;48.912;8.380;2023-04-24T00:41:58;17.40;49.10
28087;DHT22;15392;48.912;8.380;2023-04-24T00:44:25;17.40;49.00
28087;DHT22;15392;48.912;8.380;2023-04-24T00:46:51;17.40;49.00
28087;DHT22;15392;48.912;8.380;2023-04-24T00:49:22;17.40;49.10
28087;DHT22;15392;48.912;8.380;2023-04-24T00:51:48;17.40;49.00
28087;DHT22;15392;48.912;8.380;2023-04-24T00:54:17;17.40;48.90
28087;DHT22;15392;48.912;8.380;2023-04-24T00:56:44;17.50;49.20
28087;DHT22;15392;48.912;8.380;2023-04-24T00:59:11;17.40;48.90
28087;DHT22;15392;48.912;8.380;2023-04-24T01:01:39;17.50;48.90
28087;DHT22;15392;48.912;8.380;2023-04-24T01:04:07;17.50;48.80
28087;DHT22;15392;48.912;8.380;2023-04-24T01:06:35;17.50;48.80
28087;DHT22;15392;48.912;8.380;2023-04-24T01:09:03;17.50;49.00
28087;DHT22;15392;48.912;8.380;2023-04-24T01:11:29;17.50;48.90
28087;DHT22;15392;48.912;8.380;2023-04-24T01:13:56;17.50;48.80
28087;DHT22;15392;48.912;8.380;2023-04-24T01:16:22;17.50;48.80
28087;DHT22;15392;48.912;8.380;2023-04-24T01:18:48;17.50;48.70
28087;DHT22;15392;48.912;8.380;2023-04-24T01:21:15;17.50;48.90
28087;DHT22;15392;48.912;8.380;2023-04-24T01:23:45;17.50;48.90
28087;DHT22;15392;48.912;8.380;2023-04-24T01:26:12;17.50;48.80
28087;DHT22;15392;48.912;8.380;2023-04-24T01:28:39;17.50;48.80
28087;DHT22;15392;48.912;8.380;2023-04-24T01:31:05;17.50;48.70
28087;DHT22;15392;48.912;8.380;2023-04-24T01:33:31;17.50;48.70
28087;DHT22;15392;48.912;8.380;2023-04-24T01:35:57;17.50;48.70
28087;DHT22;15392;48.912;8.380;2023-04-24T01:38:23;17.50;49.00
28087;DHT22;15392;48.912;8.380;2023-04-24T01:40:49;17.50;48.80
28087;DHT22;15392;48.912;8.380;2023-04-24T01:43:15;17.50;49.10
28087;DHT22;15392;48.912;8.380;2023-04-24T01:45:41;17.50;49.00
28087;DHT22;15392;48.912;8.380;2023-04-24T01:48:07;17.50;49.10
28087;DHT22;15392;48.912;8.380;2023-04-24T01:50:33;17.50;49.30
28087;DHT22;15392;48.912;8.380;2023-04-24T01:52:59;17.50;49.30
28087;DHT22;15392;48.912;8.380;2023-04-24T01:55:25;17.50;49.30
28087;DHT22;15392;48.912;8.380;2023-04-24T01:57:52;17.50;49.40
28087;DHT22;15392;48.912;8.380;2023-04-24T02:00:21;17.50;49.40
28087;DHT22;15392;48.912;8.380;2023-04-24T02:02:47;17.50;49.60
28087;DHT22;15392;48.912;8.380;2023-04-24T02:05:13;17.50;49.50
28087;DHT22;15392;48.912;8.380;2023-04-24T02:07:39;17.50;49.30
28087;DHT22;15392;48.912;8.380;2023-04-24T02:10:05;17.50;49.40
28087;DHT22;15392;48.912;8.380;2023-04-24T02:12:31;17.50;49.50
28087;DHT22;15392;48.912;8.380;2023-04-24T02:14:57;17.40;49.50
28087;DHT22;15392;48.912;8.380;2023-04-24T02:17:23;17.40;49.50
28087;DHT22;15392;48.912;8.380;2023-04-24T02:19:49;17.40;49.70
28087;DHT22;15392;48.912;8.380;2023-04-24T02:22:14;17.40;49.40
28087;DHT22;15392;48.912;8.380;2023-04-24T02:24:40;17.40;49.40
28087;DHT22;15392;48.912;8.380;2023-04-24T02:27:06;17.40;49.30
28087;DHT22;15392;48.912;8.380;2023-04-24T02:29:32;17.30;49.40
28087;DHT22;15392;48.912;8.380;2023-04-24T02:31:58;17.30;49.50
28087;DHT22;15392;48.912;8.380;2023-04-24T02:34:24;17.30;50.00
28087;DHT22;15392;48.912;8.380;2023-04-24T02:36:50;17.30;49.60
28087;DHT22;15392;48.912;8.380;2023-04-24T02:39:16;17.20;49.50
28087;DHT22;15392;48.912;8.380;2023-04-24T02:41:42;17.20;49.80
28087;DHT22;15392;48.912;8.380;2023-04-24T02:44:09;17.20;50.00
28087;DHT22;15392;48.912;8.380;2023-04-24T02:46:35;17.20;49.80
28087;DHT22;15392;48.912;8.380;2023-04-24T02:49:00;17.20;49.80
28087;DHT22;15392;48.912;8.380;2023-04-24T02:51:26;17.20;49.80
28087;DHT22;15392;48.912;8.380;2023-04-24T02:53:52;17.20;49.90
28087;DHT22;15392;48.912;8.380;2023-04-24T02:56:18;17.20;50.00
28087;DHT22;15392;48.912;8.380;2023-04-24T02:58:44;17.20;50.00
28087;DHT22;15392;48.912;8.380;2023-04-24T03:01:10;17.20;50.30
28087;DHT22;15392;48.912;8.380;2023-04-24T03:03:37;17.20;50.30
28087;DHT22;15392;48.912;8.380;2023-04-24T03:06:03;17.20;50.60
28087;DHT22;15392;48.912;8.380;2023-04-24T03:08:34;17.20;50.50
28087;DHT22;15392;48.912;8.380;2023-04-24T03:11:00;17.20;50.40
28087;DHT22;15392;48.912;8.380;2023-04-24T03:13:26;17.20;50.50
28087;DHT22;15392;48.912;8.380;2023-04-24T03:15:52;17.10;51.90
28087;DHT22;15392;48.912;8.380;2023-04-24T03:18:19;17.10;52.70
28087;DHT22;15392;48.912;8.380;2023-04-24T03:20:45;17.00;52.60
28087;DHT22;15392;48.912;8.380;2023-04-24T03:23:12;16.90;53.40
28087;DHT22;15392;48.912;8.380;2023-04-24T03:25:37;16.80;53.50
28087;DHT22;15392;48.912;8.380;2023-04-24T03:28:03;16.70;53.50
28087;DHT22;15392;48.912;8.380;2023-04-24T03:30:29;16.60;52.90
28087;DHT22;15392;48.912;8.380;2023-04-24T03:32:54;16.50;53.10
28087;DHT22;15392;48.912;8.380;2023-04-24T03:35:20;16.40;53.70
28087;DHT22;15392;48.912;8.380;2023-04-24T03:37:47;16.30;53.90
28087;DHT22;15392;48.912;8.380;2023-04-24T03:40:13;16.20;53.80
28087;DHT22;15392;48.912;8.380;2023-04-24T03:42:38;16.10;54.00
28087;DHT22;15392;48.912;8.380;2023-04-24T03:45:05;16.10;54.20
28087;DHT22;15392;48.912;8.380;2023-04-24T03:47:31;16.00;54.20
28087;DHT22;15392;48.912;8.380;2023-04-24T03:49:57;16.00;54.50
28087;DHT22;15392;48.912;8.380;2023-04-24T03:52:22;15.90;54.90
28087;DHT22;15392;48.912;8.380;2023-04-24T03:54:48;15.80;54.70
28087;DHT22;15392;48.912;8.380;2023-04-24T03:57:14;15.80;54.20
28087;DHT22;15392;48.912;8.380;2023-04-24T03:59:40;15.80;54.40
28087;DHT22;15392;48.912;8.380;2023-04-24T04:02:05;15.80;54.70
28087;DHT22;15392;48.912;8.380;2023-04-24T04:04:31;15.80;54.60
28087;DHT22;15392;48.912;8.380;2023-04-24T04:06:57;15.70;54.20
28087;DHT22;15392;48.912;8.380;2023-04-24T04:09:26;15.70;54.90
28087;DHT22;15392;48.912;8.380;2023-04-24T04:11:55;15.70;54.50
28087;DHT22;15392;48.912;8.380;2023-04-24T04:14:22;15.70;54.50
28087;DHT22;15392;48.912;8.380;2023-04-24T04:16:48;15.70;54.50
28087;DHT22;15392;48.912;8.380;2023-04-24T04:19:14;15.60;54.10
28087;DHT22;15392;48.912;8.380;2023-04-24T04:21:40;15.60;54.40
28087;DHT22;15392;48.912;8.380;2023-04-24T04:24:06;15.60;54.00
28087;DHT22;15392;48.912;8.380;2023-04-24T04:26:32;15.60;54.00
28087;DHT22;15392;48.912;8.380;2023-04-24T04:28:59;15.60;53.90
28087;DHT22;15392;48.912;8.380;2023-04-24T04:31:28;15.50;54.20
28087;DHT22;15392;48.912;8.380;2023-04-24T04:33:55;15.50;54.20
28087;DHT22;15392;48.912;8.380;2023-04-24T04:36:21;15.50;54.50
28087;DHT22;15392;48.912;8.380;2023-04-24T04:38:47;15.50;53.70
28087;DHT22;15392;48.912;8.380;2023-04-24T04:41:12;15.50;54.00
28087;DHT22;15392;48.912;8.380;2023-04-24T04:43:38;15.40;53.70
28087;DHT22;15392;48.912;8.380;2023-04-24T04:46:05;15.40;54.10
28087;DHT22;15392;48.912;8.380;2023-04-24T04:48:31;15.40;53.90
28087;DHT22;15392;48.912;8.380;2023-04-24T04:50:57;15.40;53.90
28087;DHT22;15392;48.912;8.380;2023-04-24T04:53:23;15.30;54.00
28087;DHT22;15392;48.912;8.380;2023-04-24T04:55:49;15.30;53.70
28087;DHT22;15392;48.912;8.380;2023-04-24T04:58:15;15.30;54.00
28087;DHT22;15392;48.912;8.380;2023-04-24T05:00:41;15.30;53.80
28087;DHT22;15392;48.912;8.380;2023-04-24T05:03:07;15.30;53.80
28087;DHT22;15392;48.912;8.380;2023-04-24T05:05:32;15.30;53.80
28087;DHT22;15392;48.912;8.380;2023-04-24T05:07:58;15.20;53.50
28087;DHT22;15392;48.912;8.380;2023-04-24T05:10:24;15.30;53.70
28087;DHT22;15392;48.912;8.380;2023-04-24T05:12:50;15.20;53.80
28087;DHT22;15392;48.912;8.380;2023-04-24T05:15:15;15.20;54.10
28087;DHT22;15392;48.912;8.380;2023-04-24T05:17:41;15.20;53.40
28087;DHT22;15392;48.912;8.380;2023-04-24T05:20:07;15.20;53.40
28087;DHT22;15392;48.912;8.380;2023-04-24T05:22:35;15.20;53.80
28087;DHT22;15392;48.912;8.380;2023-04-24T05:25:01;15.20;53.50
28087;DHT22;15392;48.912;8.380;2023-04-24T05:27:29;15.20;53.40
28087;DHT22;15392;48.912;8.380;2023-04-24T05:29:55;15.20;53.60
28087;DHT22;15392;48.912;8.380;2023-04-24T05:32:21;15.20;53.60
28087;DHT22;15392;48.912;8.380;2023-04-24T05:34:47;15.20;54.30
28087;DHT22;15392;48.912;8.380;2023-04-24T05:37:12;15.20;54.10
28087;DHT22;15392;48.912;8.380;2023-04-24T05:39:38;15.20;53.70
28087;DHT22;15392;48.912;8.380;2023-04-24T05:42:04;15.20;53.60
28087;DHT22;15392;48.912;8.380;2023-04-24T05:44:31;15.20;53.90
28087;DHT22;15392;48.912;8.380;2023-04-24T05:46:57;15.30;53.50
28087;DHT22;15392;48.912;8.380;2023-04-24T05:49:23;15.30;53.80
28087;DHT22;15392;48.912;8.380;2023-04-24T05:51:50;15.30;54.20
28087;DHT22;15392;48.912;8.380;2023-04-24T05:54:15;15.30;53.70
28087;DHT22;15392;48.912;8.380;2023-04-24T05:56:41;15.30;54.00
28087;DHT22;15392;48.912;8.380;2023-04-24T05:59:08;15.30;53.80
28087;DHT22;15392;48.912;8.380;2023-04-24T06:01:34;15.30;53.80
28087;DHT22;15392;48.912;8.380;2023-04-24T06:04:02;15.40;53.50
28087;DHT22;15392;48.912;8.380;2023-04-24T06:06:28;15.30;53.50
28087;DHT22;15392;48.912;8.380;2023-04-24T06:08:55;15.40;53.70
28087;DHT22;15392;48.912;8.380;2023-04-24T06:11:21;15.40;53.50
28087;DHT22;15392;48.912;8.380;2023-04-24T06:13:46;15.40;53.00
28087;DHT22;15392;48.912;8.380;2023-04-24T06:16:12;15.40;53.30
28087;DHT22;15392;48.912;8.380;2023-04-24T06:18:38;15.40;53.20
28087;DHT22;15392;48.912;8.380;2023-04-24T06:21:04;15.50;52.70
28087;DHT22;15392;48.912;8.380;2023-04-24T06:23:30;15.40;53.00
28087;DHT22;15392;48.912;8.380;2023-04-24T06:25:58;15.40;52.40
28087;DHT22;15392;48.912;8.380;2023-04-24T06:28:25;15.50;52.90
28087;DHT22;15392;48.912;8.380;2023-04-24T06:30:51;15.50;52.70
28087;DHT22;15392;48.912;8.380;2023-04-24T06:33:17;15.50;52.80
28087;DHT22;15392;48.912;8.380;2023-04-24T06:35:43;15.50;52.60
28087;DHT22;15392;48.912;8.380;2023-04-24T06:38:09;15.50;52.50
28087;DHT22;15392;48.912;8.380;2023-04-24T06:40:35;15.50;52.30
28087;DHT22;15392;48.912;8.380;2023-04-24T06:43:00;15.60;52.40
28087;DHT22;15392;48.912;8.380;2023-04-24T06:45:29;15.60;52.70
28087;DHT22;15392;48.912;8.380;2023-04-24T06:47:55;15.60;52.90
28087;DHT22;15392;48.912;8.380;2023-04-24T06:50:21;15.60;53.00
28087;DHT22;15392;48.912;8.380;2023-04-24T06:52:47;15.60;52.60
28087;DHT22;15392;48.912;8.380;2023-04-24T06:55:13;15.70;53.00
28087;DHT22;15392;48.912;8.380;2023-04-24T06:57:40;15.70;52.70
28087;DHT22;15392;48.912;8.380;2023-04-24T07:00:07;15.70;52.40
28087;DHT22;15392;48.912;8.380;2023-04-24T07:02:34;15.70;52.40
28087;DHT22;15392;48.912;8.380;2023-04-24T07:05:05;15.80;52.60
28087;DHT22;15392;48.912;8.380;2023-04-24T07:07:32;15.80;52.00
28087;DHT22;15392;48.912;8.380;2023-04-24T07:09:58;15.80;51.70
28087;DHT22;15392;48.912;8.380;2023-04-24T07:12:25;15.90;51.40
28087;DHT22;15392;48.912;8.380;2023-04-24T07:14:51;15.90;51.00
28087;DHT22;15392;48.912;8.380;2023-04-24T07:17:18;15.90;51.00
28087;DHT22;15392;48.912;8.380;2023-04-24T07:19:44;15.90;50.90
28087;DHT22;15392;48.912;8.380;2023-04-24T07:22:10;15.90;50.70
28087;DHT22;15392;48.912;8.380;2023-04-24T07:24:44;16.00;50.40
28087;DHT22;15392;48.912;8.380;2023-04-24T07:27:13;16.00;50.20
28087;DHT22;15392;48.912;8.380;2023-04-24T07:29:41;16.10;49.80
28087;DHT22;15392;48.912;8.380;2023-04-24T07:32:06;16.10;49.80
28087;DHT22;15392;48.912;8.380;2023-04-24T07:34:34;16.20;49.50
28087;DHT22;15392;48.912;8.380;2023-04-24T07:37:02;16.30;49.40
28087;DHT22;15392;48.912;8.380;2023-04-24T07:39:31;16.30;49.10
28087;DHT22;15392;48.912;8.380;2023-04-24T07:41:57;16.30;48.70
28087;DHT22;15392;48.912;8.380;2023-04-24T07:44:24;16.30;48.90
28087;DHT22;15392;48.912;8.380;2023-04-24T07:46:50;16.40;49.10
28087;DHT22;15392;48.912;8.380;2023-04-24T07:49:16;16.40;49.30
28087;DHT22;15392;48.912;8.380;2023-04-24T07:51:42;16.40;49.10
28087;DHT22;15392;48.912;8.380;2023-04-24T07:54:08;16.50;49.10
28087;DHT22;15392;48.912;8.380;2023-04-24T07:56:33;16.50;48.80
28087;DHT22;15392;48.912;8.380;2023-04-24T07:59:00;16.50;48.10
28087;DHT22;15392;48.912;8.380;2023-04-24T08:01:27;16.50;48.00
28087;DHT22;15392;48.912;8.380;2023-04-24T08:03:53;16.50;47.60
28087;DHT22;15392;48.912;8.380;2023-04-24T08:06:19;16.50;47.60
28087;DHT22;15392;48.912;8.380;2023-04-24T08:08:46;16.50;48.00
28087;DHT22;15392;48.912;8.380;2023-04-24T08:11:12;16.50;48.10
28087;DHT22;15392;48.912;8.380;2023-04-24T08:13:39;16.40;48.00
28087;DHT22;15392;48.912;8.380;2023-04-24T08:16:05;16.40;47.60
28087;DHT22;15392;48.912;8.380;2023-04-24T08:18:31;16.40;47.90
28087;DHT22;15392;48.912;8.380;2023-04-24T08:20:58;16.40;48.00
28087;DHT22;15392;48.912;8.380;2023-04-24T08:23:27;16.40;48.10
28087;DHT22;15392;48.912;8.380;2023-04-24T08:25:52;16.40;48.30
28087;DHT22;15392;48.912;8.380;2023-04-24T08:28:19;16.40;48.10
28087;DHT22;15392;48.912;8.380;2023-04-24T08:30:46;16.30;48.30
28087;DHT22;15392;48.912;8.380;2023-04-24T08:33:20;16.30;48.70
28087;DHT22;15392;48.912;8.380;2023-04-24T08:35:48;16.30;48.60
28087;DHT22;15392;48.912;8.380;2023-04-24T08:38:15;16.30;48.60
28087;DHT22;15392;48.912;8.380;2023-04-24T08:40:42;16.30;48.70
28087;DHT22;15392;48.912;8.380;2023-04-24T08:43:11;16.30;48.50
28087;DHT22;15392;48.912;8.380;2023-04-24T08:45:38;16.30;48.60
28087;DHT22;15392;48.912;8.380;2023-04-24T08:48:04;16.20;48.50
28087;DHT22;15392;48.912;8.380;2023-04-24T08:50:34;16.30;48.40
28087;DHT22;15392;48.912;8.380;2023-04-24T08:53:04;16.30;48.60
28087;DHT22;15392;48.912;8.380;2023-04-24T08:55:33;16.30;48.50
28087;DHT22;15392;48.912;8.380;2023-04-24T08:58:00;16.30;48.60
28087;DHT22;15392;48.912;8.380;2023-04-24T09:00:27;16.30;48.90
28087;DHT22;15392;48.912;8.380;2023-04-24T09:02:55;16.40;49.00
28087;DHT22;15392;48.912;8.380;2023-04-24T09:05:24;16.50;48.30
28087;DHT22;15392;48.912;8.380;2023-04-24T09:07:56;16.60;48.00
28087;DHT22;15392;48.912;8.380;2023-04-24T09:10:28;16.70;48.00
28087;DHT22;15392;48.912;8.380;2023-04-24T09:12:57;16.70;47.20
28087;DHT22;15392;48.912;8.380;2023-04-24T09:15:25;16.80;47.00
28087;DHT22;15392;48.912;8.380;2023-04-24T09:17:52;16.80;47.20
28087;DHT22;15392;48.912;8.380;2023-04-24T09:20:21;16.90;46.60
28087;DHT22;15392;48.912;8.380;2023-04-24T09:22:53;16.90;46.90
28087;DHT22;15392;48.912;8.380;2023-04-24T09:25:34;17.00;46.70
28087;DHT22;15392;48.912;8.380;2023-04-24T09:28:03;17.00;46.90
28087;DHT22;15392;48.912;8.380;2023-04-24T09:30:30;17.00;47.00
28087;DHT22;15392;48.912;8.380;2023-04-24T09:33:15;17.00;47.10
28087;DHT22;15392;48.912;8.380;2023-04-24T09:35:53;17.00;46.60
28087;DHT22;15392;48.912;8.380;2023-04-24T09:38:36;17.10;47.00
28087;DHT22;15392;48.912;8.380;2023-04-24T09:41:05;17.10;46.80
28087;DHT22;15392;48.912;8.380;2023-04-24T09:43:32;17.10;47.30
28087;DHT22;15392;48.912;8.380;2023-04-24T09:46:03;17.10;47.30
28087;DHT22;15392;48.912;8.380;2023-04-24T09:48:35;17.10;47.10
28087;DHT22;15392;48.912;8.380;2023-04-24T09:51:04;17.20;47.60
28087;DHT22;15392;48.912;8.380;2023-04-24T09:53:36;17.20;47.70
28087;DHT22;15392;48.912;8.380;2023-04-24T09:56:03;17.20;47.50
28087;DHT22;15392;48.912;8.380;2023-04-24T09:58:35;17.20;47.20
28087;DHT22;15392;48.912;8.380;2023-04-24T10:01:01;17.20;47.20
28087;DHT22;15392;48.912;8.380;2023-04-24T10:03:33;17.20;46.70
28087;DHT22;15392;48.912;8.380;2023-04-24T10:06:04;17.20;46.30
28087;DHT22;15392;48.912;8.380;2023-04-24T10:08:40;17.10;46.30
28087;DHT22;15392;48.912;8.380;2023-04-24T10:11:07;17.10;46.60
28087;DHT22;15392;48.912;8.380;2023-04-24T10:13:33;17.10;46.80
28087;DHT22;15392;48.912;8.380;2023-04-24T10:16:00;17.10;47.00
28087;DHT22;15392;48.912;8.380;2023-04-24T10:18:26;17.10;47.00
28087;DHT22;15392;48.912;8.380;2023-04-24T10:20:53;17.10;46.70
28087;DHT22;15392;48.912;8.380;2023-04-24T10:23:20;17.10;46.50
28087;DHT22;15392;48.912;8.380;2023-04-24T10:25:46;17.00;46.10
28087;DHT22;15392;48.912;8.380;2023-04-24T10:28:12;17.00;46.10
28087;DHT22;15392;48.912;8.380;2023-04-24T10:30:39;17.00;46.30
28087;DHT22;15392;48.912;8.380;2023-04-24T10:33:08;17.00;46.40
28087;DHT22;15392;48.912;8.380;2023-04-24T10:35:37;17.00;46.20
28087;DHT22;15392;48.912;8.380;2023-04-24T10:38:17;17.00;46.80
28087;DHT22;15392;48.912;8.380;2023-04-24T10:40:49;17.00;46.80
28087;DHT22;15392;48.912;8.380;2023-04-24T10:43:17;17.00;46.30
28087;DHT22;15392;48.912;8.380;2023-04-24T10:46:03;17.00;46.60
28087;DHT22;15392;48.912;8.380;2023-04-24T10:48:31;17.00;46.50
28087;DHT22;15392;48.912;8.380;2023-04-24T10:50:57;17.00;46.10
28087;DHT22;15392;48.912;8.380;2023-04-24T10:53:28;17.00;46.30
28087;DHT22;15392;48.912;8.380;2023-04-24T10:56:07;17.00;46.20
28087;DHT22;15392;48.912;8.380;2023-04-24T10:58:43;16.90;46.40
28087;DHT22;15392;48.912;8.380;2023-04-24T11:01:28;16.90;46.50
28087;DHT22;15392;48.912;8.380;2023-04-24T11:04:00;16.90;46.70
28087;DHT22;15392;48.912;8.380;2023-04-24T11:06:32;16.80;46.60
28087;DHT22;15392;48.912;8.380;2023-04-24T11:09:09;16.80;46.60
28087;DHT22;15392;48.912;8.380;2023-04-24T11:11:43;16.80;46.60
28087;DHT22;15392;48.912;8.380;2023-04-24T11:14:10;16.80;46.50
28087;DHT22;15392;48.912;8.380;2023-04-24T11:16:52;16.80;47.00
28087;DHT22;15392;48.912;8.380;2023-04-24T11:19:57;16.80;47.00
28087;DHT22;15392;48.912;8.380;2023-04-24T11:22:45;16.90;46.90
28087;DHT22;15392;48.912;8.380;2023-04-24T11:25:15;16.90;46.40
28087;DHT22;15392;48.912;8.380;2023-04-24T11:27:45;16.90;46.70
28087;DHT22;15392;48.912;8.380;2023-04-24T11:30:17;16.90;46.50
28087;DHT22;15392;48.912;8.380;2023-04-24T11:32:53;16.90;46.90
28087;DHT22;15392;48.912;8.380;2023-04-24T11:35:22;16.90;47.20
28087;DHT22;15392;48.912;8.380;2023-04-24T11:37:54;16.90;47.40
28087;DHT22;15392;48.912;8.380;2023-04-24T11:40:22;16.80;47.50
28087;DHT22;15392;48.912;8.380;2023-04-24T11:42:52;16.80;47.90
28087;DHT22;15392;48.912;8.380;2023-04-24T11:45:25;16.90;48.10
28087;DHT22;15392;48.912;8.380;2023-04-24T11:47:54;16.90;48.00
28087;DHT22;15392;48.912;8.380;2023-04-24T11:50:24;16.80;47.80
28087;DHT22;15392;48.912;8.380;2023-04-24T11:52:55;16.80;47.70
28087;DHT22;15392;48.912;8.380;2023-04-24T11:57:57;16.80;47.90
28087;DHT22;15392;48.912;8.380;2023-04-24T12:00:29;16.80;47.90
28087;DHT22;15392;48.912;8.380;2023-04-24T12:05:30;16.80;48.20
28087;DHT22;15392;48.912;8.380;2023-04-24T12:07:58;16.80;48.20
28087;DHT22;15392;48.912;8.380;2023-04-24T12:10:26;16.80;48.20
28087;DHT22;15392;48.912;8.380;2023-04-24T12:12:55;16.90;48.60
28087;DHT22;15392;48.912;8.380;2023-04-24T12:15:22;16.90;47.70
28087;DHT22;15392;48.912;8.380;2023-04-24T12:17:51;16.90;47.50
28087;DHT22;15392;48.912;8.380;2023-04-24T12:20:22;17.00;47.70
28087;DHT22;15392;48.912;8.380;2023-04-24T12:22:55;17.00;47.80
28087;DHT22;15392;48.912;8.380;2023-04-24T12:25:24;17.10;47.90
28087;DHT22;15392;48.912;8.380;2023-04-24T12:28:08;17.10;47.90
28087;DHT22;15392;48.912;8.380;2023-04-24T12:30:51;17.20;47.60
28087;DHT22;15392;48.912;8.380;2023-04-24T12:33:20;17.30;47.60
28087;DHT22;15392;48.912;8.380;2023-04-24T12:35:52;17.30;47.40
28087;DHT22;15392;48.912;8.380;2023-04-24T12:38:23;17.30;47.30
28087;DHT22;15392;48.912;8.380;2023-04-24T12:41:06;17.40;47.30
28087;DHT22;15392;48.912;8.380;2023-04-24T12:43:33;17.40;47.70
28087;DHT22;15392;48.912;8.380;2023-04-24T12:45:59;17.50;47.10
28087;DHT22;15392;48.912;8.380;2023-04-24T12:48:29;17.50;47.40
28087;DHT22;15392;48.912;8.380;2023-04-24T12:50:58;17.60;47.50
28087;DHT22;15392;48.912;8.380;2023-04-24T12:57:36;17.80;46.50
28087;DHT22;15392;48.912;8.380;2023-04-24T13:00:09;18.00;47.00
28087;DHT22;15392;48.912;8.380;2023-04-24T13:02:36;18.00;46.90
28087;DHT22;15392;48.912;8.380;2023-04-24T13:05:03;18.10;46.50
28087;DHT22;15392;48.912;8.380;2023-04-24T13:07:30;18.20;46.80
28087;DHT22;15392;48.912;8.380;2023-04-24T13:09:56;18.30;46.70
28087;DHT22;15392;48.912;8.380;2023-04-24T13:12:23;18.40;46.40
28087;DHT22;15392;48.912;8.380;2023-04-24T13:14:49;18.40;46.00
28087;DHT22;15392;48.912;8.380;2023-04-24T13:17:15;18.50;46.10
28087;DHT22;15392;48.912;8.380;2023-04-24T13:19:43;18.50;45.70
28087;DHT22;15392;48.912;8.380;2023-04-24T13:22:11;18.50;45.80
28087;DHT22;15392;48.912;8.380;2023-04-24T13:24:38;18.50;46.20
28087;DHT22;15392;48.912;8.380;2023-04-24T13:27:08;18.50;45.50
28087;DHT22;15392;48.912;8.380;2023-04-24T13:29:35;18.50;45.20
28087;DHT22;15392;48.912;8.380;2023-04-24T13:32:01;18.40;45.10
28087;DHT22;15392;48.912;8.380;2023-04-24T13:34:27;18.50;45.50
28087;DHT22;15392;48.912;8.380;2023-04-24T13:36:54;18.40;45.90
28087;DHT22;15392;48.912;8.380;2023-04-24T13:39:22;18.50;45.80
28087;DHT22;15392;48.912;8.380;2023-04-24T13:41:48;18.50;45.60
28087;DHT22;15392;48.912;8.380;2023-04-24T13:44:17;18.50;45.00
28087;DHT22;15392;48.912;8.380;2023-04-24T13:46:45;18.60;45.00
28087;DHT22;15392;48.912;8.380;2023-04-24T13:49:14;18.60;45.20
28087;DHT22;15392;48.912;8.380;2023-04-24T13:51:41;18.50;45.20
28087;DHT22;15392;48.912;8.380;2023-04-24T13:54:07;18.50;44.50
28087;DHT22;15392;48.912;8.380;2023-04-24T13:56:33;18.50;44.30
28087;DHT22;15392;48.912;8.380;2023-04-24T13:59:01;18.50;44.50
28087;DHT22;15392;48.912;8.380;2023-04-24T14:01:27;18.40;43.80
28087;DHT22;15392;48.912;8.380;2023-04-24T14:03:54;18.40;45.00
28087;DHT22;15392;48.912;8.380;2023-04-24T14:06:21;18.40;44.70
28087;DHT22;15392;48.912;8.380;2023-04-24T14:08:49;18.40;44.80
28087;DHT22;15392;48.912;8.380;2023-04-24T14:11:16;18.40;44.90
28087;DHT22;15392;48.912;8.380;2023-04-24T14:13:43;18.40;44.60
28087;DHT22;15392;48.912;8.380;2023-04-24T14:16:11;18.30;44.60
28087;DHT22;15392;48.912;8.380;2023-04-24T14:18:37;18.30;45.20
28087;DHT22;15392;48.912;8.380;2023-04-24T14:21:04;18.30;45.70
28087;DHT22;15392;48.912;8.380;2023-04-24T14:23:31;18.30;44.90
28087;DHT22;15392;48.912;8.380;2023-04-24T14:25:59;18.30;44.90
28087;DHT22;15392;48.912;8.380;2023-04-24T14:28:26;18.40;45.30
28087;DHT22;15392;48.912;8.380;2023-04-24T14:30:52;18.30;45.10
28087;DHT22;15392;48.912;8.380;2023-04-24T14:33:18;18.30;45.10
28087;DHT22;15392;48.912;8.380;2023-04-24T14:35:44;18.30;44.70
28087;DHT22;15392;48.912;8.380;2023-04-24T14:38:10;18.30;44.90
28087;DHT22;15392;48.912;8.380;2023-04-24T14:40:38;18.30;44.60
28087;DHT22;15392;48.912;8.380;2023-04-24T14:43:04;18.30;44.50
28087;DHT22;15392;48.912;8.380;2023-04-24T14:45:30;18.30;44.50
28087;DHT22;15392;48.912;8.380;2023-04-24T14:47:56;18.30;44.60
28087;DHT22;15392;48.912;8.380;2023-04-24T14:50:24;18.30;44.90
28087;DHT22;15392;48.912;8.380;2023-04-24T14:52:54;18.30;45.10
28087;DHT22;15392;48.912;8.380;2023-04-24T14:55:23;18.30;45.30
28087;DHT22;15392;48.912;8.380;2023-04-24T14:57:49;18.30;45.70
28087;DHT22;15392;48.912;8.380;2023-04-24T15:00:15;18.20;45.60
28087;DHT22;15392;48.912;8.380;2023-04-24T15:02:42;18.20;45.80
28087;DHT22;15392;48.912;8.380;2023-04-24T15:05:10;18.20;46.00
28087;DHT22;15392;48.912;8.380;2023-04-24T15:07:37;18.20;45.80
28087;DHT22;15392;48.912;8.380;2023-04-24T15:10:04;18.20;46.00
28087;DHT22;15392;48.912;8.380;2023-04-24T15:12:30;18.10;45.40
28087;DHT22;15392;48.912;8.380;2023-04-24T15:14:57;18.20;45.70
28087;DHT22;15392;48.912;8.380;2023-04-24T15:17:24;18.20;45.70
28087;DHT22;15392;48.912;8.380;2023-04-24T15:19:51;18.20;45.60
28087;DHT22;15392;48.912;8.380;2023-04-24T15:22:17;18.20;45.50
28087;DHT22;15392;48.912;8.380;2023-04-24T15:24:42;18.20;45.60
28087;DHT22;15392;48.912;8.380;2023-04-24T15:27:11;18.20;45.70
28087;DHT22;15392;48.912;8.380;2023-04-24T15:29:38;18.20;45.90
28087;DHT22;15392;48.912;8.380;2023-04-24T15:32:04;18.20;45.70
28087;DHT22;15392;48.912;8.380;2023-04-24T15:34:30;18.20;45.50
28087;DHT22;15392;48.912;8.380;2023-04-24T15:36:58;18.20;45.50
28087;DHT22;15392;48.912;8.380;2023-04-24T15:39:24;18.20;45.60
28087;DHT22;15392;48.912;8.380;2023-04-24T15:41:51;18.20;45.60